イエローナイフ の空港の天気 - METARとTAF

イエローナイフ空港 ( CYZF / YZF ) - カナダ ノースウエスト準州イエローナイフ
飛行場実況気象(Metar)
観測時間10/18 18:00 MDT (10/19 00:00 UTC)
風向・風速北 5m/s
視程2400m
天気現象弱い雪 もや
全天を覆う雲 雲底高度 490m
気温-1℃
湿度86%
気圧998.1hPa
METARCYZF 190000Z 36009KT 1 1/2SM -SN BR OVC016 M01/M03 A2943 RMK SC8 CIG RAG SLP981
過去の天気等 Google飛行場航空写真 Wunderground天気予報

過去48時間のMETAR

飛行場予報(TAF)
発表時間: 10/18 17:38 MDT (10/18 23:38 UTC)
予報対象時間: 18日18時 MDT ~ 19日18時 MDT
風向・風速北 5m/s
視程10km以上
天気現象弱い雪
全天を覆う雲 雲底高度 1220m
18日18時 MDT ~ 18日24時 MDT に一時的に
視程8850m
天気現象弱い雪 もや
全天を覆う雲 雲底高度 610m
19日0時 MDT から
風向・風速北 4m/s
視程10km以上
全天の4割程度の雲 雲底高度 460m
全天の8割程度の雲 雲底高度 1220m
19日4時 MDT ~ 19日18時 MDT に一時的に
全天の8割程度の雲 雲底高度 460m
TAF CYZF 182338Z 1900/1924 36010KT 6SM -SN OVC040
TEMPO 1900/1906 11/2SM -SN BR OVC020
FM190600 01008KT P6SM SCT015 BKN040
TEMPO 1910/1924 BKN015 RMK NXT FCST BY 190600Z